Pietro Novelli — IOTQ — position and weather

sailwx.info

Track history (hours):
 
Tides and Currents Weather Stations Pressure Air Temp Water Temp Dewpoint Dewpoint Depression Visibility Wind Speed Wind Dir Waves Ship Positions

Pietro Novelli

Last reported at 2015-Jul-07 17:12 UTC. Time now 2015-Jul-07 19:46 UTC.
Position N 38°01' E 012°30'.

Length 91 m; draft 3.9 m.

Type: Ship. MMSI: 247000300.

Date/timePositionNaut miles runAvg speedWind from/ knotsBaromVisibWave heightAir tempDewpointWater temp
2015-Jul-07 17:12N 38°01' E 012°30'0 0.0
2015-Jul-07 16:33N 38°01' E 012°30'1 1.4
2015-Jul-07 15:33N 37°60' E 012°29'1212.2
2015-Jul-07 14:33N 37°50' E 012°20'1413.3
2015-Jul-07 13:32N 37°37' E 012°14'1413.9
2015-Jul-07 12:33N 37°24' E 012°09'1414.1
2015-Jul-07 11:33N 37°11' E 012°04'1414.1
2015-Jul-07 10:34N 36°57' E 011°59'7 7.4
2015-Jul-07 09:33N 36°50' E 011°56'0 0.0
2015-Jul-07 08:33N 36°50' E 011°56'0 0.0
2015-Jul-07 07:33N 36°50' E 011°56'0 0.0
2015-Jul-07 06:33N 36°50' E 011°56'0 0.0
2015-Jul-07 05:33N 36°50' E 011°56'0 0.0
2015-Jul-07 04:33N 36°50' E 011°56'20 9.7
2015-Jul-07 02:29N 37°10' E 012°02'1211.1
2015-Jul-07 01:26N 37°21' E 012°06'1010.8
2015-Jul-07 00:33N 37°30' E 012°10'1110.8
2015-Jul-06 23:33N 37°40' E 012°15'1110.6
2015-Jul-06 22:33N 37°50' E 012°20'1110.7
2015-Jul-06 21:33N 37°59' E 012°27'3 3.1
2015-Jul-06 20:33N 38°01' E 012°30'0 0.0
2015-Jul-06 19:33N 38°01' E 012°30'0 0.0
2015-Jul-06 18:33N 38°01' E 012°30'0 0.0
2015-Jul-06 17:33N 38°01' E 012°30'0 0.0
2015-Jul-06 16:33N 38°01' E 012°30'0 0.1
2015-Jul-06 15:33N 38°01' E 012°30'1211.6
2015-Jul-06 14:33N 37°51' E 012°22'1414.0
2015-Jul-06 13:34N 37°38' E 012°16'1414.3
2015-Jul-06 12:33N 37°24' E 012°12'1414.2
2015-Jul-06 11:33N 37°11' E 012°06'1414.3
2015-Jul-06 10:33N 36°57' E 011°60'8 7.0
2015-Jul-06 09:28N 36°50' E 011°56'0 0.0
2015-Jul-06 08:33N 36°50' E 011°56'0 0.0
2015-Jul-06 07:33N 36°50' E 011°56'0 0.0
2015-Jul-06 06:33N 36°50' E 011°56'0 0.0
2015-Jul-06 05:33N 36°50' E 011°56'0 0.0
2015-Jul-06 04:33N 36°50' E 011°56'8 8.5
2015-Jul-06 03:33N 36°58' E 012°00'1211.6
2015-Jul-06 02:33N 37°09' E 012°05'1111.5
2015-Jul-06 01:33N 37°20' E 012°11'1111.0
2015-Jul-06 00:33N 37°30' E 012°15'8 7.7
2015-Jul-05 23:32N 37°38' E 012°17'1010.1
2015-Jul-05 22:33N 37°47' E 012°20'1110.8
2015-Jul-05 21:33N 37°57' E 012°26'5 5.3
2015-Jul-05 20:33N 38°01' E 012°30'0 0.0
2015-Jul-05 19:33N 38°01' E 012°30'0 0.0
2015-Jul-05 18:33N 38°01' E 012°30'0 0.0
2015-Jul-05 17:33N 38°01' E 012°30'0 0.0
2015-Jul-05 16:33N 38°01' E 012°30'2 1.7
2015-Jul-05 15:33N 37°60' E 012°29'1111.1
2015-Jul-05 14:33N 37°51' E 012°20'1414.2
2015-Jul-05 13:34N 37°37' E 012°15'1513.8
2015-Jul-05 12:31N 37°24' E 012°08'1313.8
2015-Jul-05 11:33N 37°11' E 012°04'1514.8
2015-Jul-05 10:34N 36°57' E 011°59'7 6.9
2015-Jul-05 09:33N 36°50' E 011°56'0 0.0
2015-Jul-05 07:25N 36°50' E 011°56'1 0.2
2015-Jul-05 04:08N 36°51' E 011°57'6 9.2
2015-Jul-05 03:26N 36°57' E 011°58'2010.7
2015-Jul-05 01:33N 37°16' E 012°06'1111.2
2015-Jul-05 00:33N 37°27' E 012°11'1110.8
2015-Jul-04 23:33N 37°37' E 012°15'1010.4
2015-Jul-04 22:33N 37°47' E 012°20'1211.7
2015-Jul-04 21:33N 37°57' E 012°25'2 0.3
2015-Jul-04 15:24N 37°59' E 012°27'1113.2
2015-Jul-04 14:34N 37°49' E 012°20'1413.8
2015-Jul-04 13:33N 37°36' E 012°17'1313.0
2015-Jul-04 12:33N 37°23' E 012°12'1513.6
2015-Jul-04 11:26N 37°09' E 012°05'1314.3
2015-Jul-04 10:32N 36°57' E 011°59'7 6.3
2015-Jul-04 09:22N 36°50' E 011°56'0 0.0
2015-Jul-04 08:25N 36°50' E 011°56'0 0.0
2015-Jul-04 07:27N 36°50' E 011°56'32 5.0
2015-Jul-04 01:04N 37°21' E 012°09'611.6
2015-Jul-04 00:33N 37°26' E 012°11'38 3.1
2015-Jul-03 12:13N 38°01' E 012°31'0 0.0
2015-Jul-03 10:19N 38°01' E 012°31'0 0.0
2015-Jul-03 09:26N 38°01' E 012°31'18 3.7
2015-Jul-03 04:32N 37°46' E 012°17'3511.5
2015-Jul-03 01:31N 37°24' E 012°51'1412.6
2015-Jul-03 00:24N 37°19' E 013°07'1212.8
2015-Jul-02 23:28N 37°14' E 013°21'9 2.4
2015-Jul-02 19:33N 37°17' E 013°32'21 6.1
2015-Jul-02 16:08N 36°58' E 013°22'814.6
2015-Jul-02 15:33N 36°50' E 013°18'1515.0
2015-Jul-02 14:33N 36°36' E 013°11'1515.0
2015-Jul-02 13:33N 36°22' E 013°04'1514.8
2015-Jul-02 12:33N 36°08' E 012°58'1514.6
2015-Jul-02 11:33N 35°55' E 012°52'1110.5
2015-Jul-02 10:33N 35°45' E 012°46'1414.4
2015-Jul-02 09:33N 35°32' E 012°40'3 3.4
2015-Jul-02 08:33N 35°30' E 012°36'0 0.0
2015-Jul-02 07:22N 35°30' E 012°36'2 2.2
2015-Jul-02 06:34N 35°29' E 012°38'1514.4
2015-Jul-02 05:29N 35°43' E 012°46'10 8.0
2015-Jul-02 04:18N 35°52' E 012°51'810.6
2015-Jul-02 03:33N 35°60' E 012°51'1413.7
2015-Jul-02 02:32N 36°13' E 012°57'1413.8
2015-Jul-02 01:33N 36°25' E 013°04'1413.9
2015-Jul-02 00:33N 36°38' E 013°11'1413.9
2015-Jul-01 23:33N 36°50' E 013°18'1413.8
2015-Jul-01 22:33N 37°03' E 013°24'1513.7
2015-Jul-01 21:29N 37°17' E 013°32'1 0.3
2015-Jul-01 19:33N 37°17' E 013°32'0 0.0
2015-Jul-01 18:33N 37°17' E 013°32'2 2.4
2015-Jul-01 17:33N 37°15' E 013°31'1414.3
2015-Jul-01 16:33N 37°02' E 013°25'1514.6
2015-Jul-01 15:33N 36°48' E 013°17'1515.1
2015-Jul-01 14:33N 36°34' E 013°09'1514.9
2015-Jul-01 13:33N 36°20' E 013°03'1514.7
2015-Jul-01 12:32N 36°06' E 012°57'1414.6
2015-Jul-01 11:34N 35°53' E 012°51'1110.7
2015-Jul-01 10:33N 35°43' E 012°46'1414.2
2015-Jul-01 09:33N 35°30' E 012°39'2 1.6
2015-Jul-01 08:13N 35°30' E 012°36'0 0.0
2015-Jul-01 07:33N 35°30' E 012°36'11 8.4
2015-Jul-01 06:15N 35°39' E 012°44'1014.8
2015-Jul-01 05:33N 35°48' E 012°49'1110.8
2015-Jul-01 04:33N 35°59' E 012°52'1514.7
2015-Jul-01 03:33N 36°13' E 012°58'1514.6
2015-Jul-01 02:33N 36°26' E 013°04'1414.0
2015-Jul-01 01:33N 36°40' E 013°10'1313.1
2015-Jul-01 00:33N 36°51' E 013°19'1313.4
2015-Jun-30 23:33N 37°03' E 013°25'1413.5
2015-Jun-30 22:32N 37°16' E 013°31'1 1.3
2015-Jun-30 21:33N 37°17' E 013°32'0 0.0
2015-Jun-30 20:31N 37°17' E 013°32'0 0.0
2015-Jun-30 19:33N 37°17' E 013°32'0 0.0
2015-Jun-30 18:33N 37°17' E 013°32'3 3.4
2015-Jun-30 17:33N 37°14' E 013°31'1414.3
2015-Jun-30 16:33N 37°01' E 013°23'1414.4
2015-Jun-30 15:33N 36°48' E 013°15'1514.6
2015-Jun-30 14:33N 36°34' E 013°09'1514.5
2015-Jun-30 13:33N 36°21' E 013°03'2014.4
2015-Jun-30 12:12N 36°02' E 012°55'914.2
2015-Jun-30 11:32N 35°53' E 012°51'1010.0
2015-Jun-30 10:33N 35°44' E 012°46'1514.0
2015-Jun-30 09:31N 35°31' E 012°39'23 4.3
2015-Jun-30 04:11N 35°52' E 012°51'811.8
2015-Jun-30 03:32N 35°59' E 012°53'1313.5
2015-Jun-30 02:33N 36°12' E 012°57'1313.1
2015-Jun-30 01:33N 36°24' E 013°03'1312.9
2015-Jun-30 00:33N 36°36' E 013°09'1312.6
2015-Jun-29 23:33N 36°47' E 013°16'1413.1
2015-Jun-29 22:30N 37°00' E 013°23'1413.2
2015-Jun-29 21:28N 37°13' E 013°30'5 1.4
2015-Jun-29 18:06N 37°17' E 013°32'610.4
2015-Jun-29 17:29N 37°11' E 013°30'1314.4
2015-Jun-29 16:34N 36°58' E 013°25'1414.2
2015-Jun-29 15:33N 36°45' E 013°18'1414.0
2015-Jun-29 14:34N 36°32' E 013°11'1414.0
2015-Jun-29 13:34N 36°20' E 013°04'1414.1
2015-Jun-29 12:33N 36°06' E 012°58'1413.8
2015-Jun-29 11:33N 35°54' E 012°51'10 9.8
2015-Jun-29 10:33N 35°44' E 012°47'1413.8
2015-Jun-29 09:33N 35°32' E 012°40'4 3.3
2015-Jun-29 08:28N 35°30' E 012°36'1 0.5
2015-Jun-29 06:33N 35°29' E 012°37'1413.7
2015-Jun-29 05:33N 35°41' E 012°46'12 9.0
2015-Jun-29 04:15N 35°52' E 012°51'710.6
2015-Jun-29 03:33N 35°59' E 012°52'1312.8
2015-Jun-29 02:34N 36°11' E 012°55'1313.2
2015-Jun-29 01:34N 36°24' E 013°01'1313.1
2015-Jun-29 00:33N 36°36' E 013°08'1313.4
2015-Jun-28 23:34N 36°48' E 013°14'1413.4
2015-Jun-28 22:31N 36°60' E 013°23'1313.6
2015-Jun-28 21:33N 37°12' E 013°30'5 5.3
2015-Jun-28 20:33N 37°17' E 013°32'0 0.0
2015-Jun-28 19:31N 37°17' E 013°32'0 0.0
2015-Jun-28 18:33N 37°17' E 013°32'5 5.3
2015-Jun-28 17:33N 37°12' E 013°31'1313.2
2015-Jun-28 16:33N 36°59' E 013°26'1313.3
2015-Jun-28 15:34N 36°47' E 013°19'1313.5
2015-Jun-28 14:33N 36°35' E 013°12'1413.5
2015-Jun-28 13:33N 36°22' E 013°06'1413.6
2015-Jun-28 12:34N 36°10' E 012°59'1913.6
2015-Jun-28 11:09N 35°52' E 012°50'9 1.2
2015-Jun-28 03:27N 36°01' E 012°52'1110.9
2015-Jun-28 02:24N 36°12' E 012°57'1012.3
2015-Jun-28 01:33N 36°21' E 013°02'1414.0
2015-Jun-28 00:33N 36°34' E 013°10'1413.6
2015-Jun-27 23:33N 36°46' E 013°17'1313.5
2015-Jun-27 22:33N 36°59' E 013°23'20 4.9
2015-Jun-27 18:33N 37°17' E 013°32'1010.4
2015-Jun-27 17:33N 37°07' E 013°31'  
Track history (hours):
 
Tides and Currents Weather Stations Pressure Air Temp Water Temp Dewpoint Dewpoint Depression Visibility Wind Speed Wind Dir Waves Ship Positions

Pietro Novelli

Last reported at 2015-Jul-07 17:12 UTC. Time now 2015-Jul-07 19:46 UTC.
Position N 38°01' E 012°30'.

Length 91 m; draft 3.9 m.

Type: Ship. MMSI: 247000300.

Date/timePositionNaut miles runAvg speedWind from/ knotsBaromVisibWave heightAir tempDewpointWater temp
2015-Jul-07 17:12N 38°01' E 012°30'0 0.0
2015-Jul-07 16:33N 38°01' E 012°30'1 1.4
2015-Jul-07 15:33N 37°60' E 012°29'1212.2
2015-Jul-07 14:33N 37°50' E 012°20'1413.3
2015-Jul-07 13:32N 37°37' E 012°14'1413.9
2015-Jul-07 12:33N 37°24' E 012°09'1414.1
2015-Jul-07 11:33N 37°11' E 012°04'1414.1
2015-Jul-07 10:34N 36°57' E 011°59'7 7.4
2015-Jul-07 09:33N 36°50' E 011°56'0 0.0
2015-Jul-07 08:33N 36°50' E 011°56'0 0.0
2015-Jul-07 07:33N 36°50' E 011°56'0 0.0
2015-Jul-07 06:33N 36°50' E 011°56'0 0.0
2015-Jul-07 05:33N 36°50' E 011°56'0 0.0
2015-Jul-07 04:33N 36°50' E 011°56'20 9.7
2015-Jul-07 02:29N 37°10' E 012°02'1211.1
2015-Jul-07 01:26N 37°21' E 012°06'1010.8
2015-Jul-07 00:33N 37°30' E 012°10'1110.8
2015-Jul-06 23:33N 37°40' E 012°15'1110.6
2015-Jul-06 22:33N 37°50' E 012°20'1110.7
2015-Jul-06 21:33N 37°59' E 012°27'3 3.1
2015-Jul-06 20:33N 38°01' E 012°30'0 0.0
2015-Jul-06 19:33N 38°01' E 012°30'0 0.0
2015-Jul-06 18:33N 38°01' E 012°30'0 0.0
2015-Jul-06 17:33N 38°01' E 012°30'0 0.0
2015-Jul-06 16:33N 38°01' E 012°30'0 0.1
2015-Jul-06 15:33N 38°01' E 012°30'1211.6
2015-Jul-06 14:33N 37°51' E 012°22'1414.0
2015-Jul-06 13:34N 37°38' E 012°16'1414.3
2015-Jul-06 12:33N 37°24' E 012°12'1414.2
2015-Jul-06 11:33N 37°11' E 012°06'1414.3
2015-Jul-06 10:33N 36°57' E 011°60'8 7.0
2015-Jul-06 09:28N 36°50' E 011°56'0 0.0
2015-Jul-06 08:33N 36°50' E 011°56'0 0.0
2015-Jul-06 07:33N 36°50' E 011°56'0 0.0
2015-Jul-06 06:33N 36°50' E 011°56'0 0.0
2015-Jul-06 05:33N 36°50' E 011°56'0 0.0
2015-Jul-06 04:33N 36°50' E 011°56'8 8.5
2015-Jul-06 03:33N 36°58' E 012°00'1211.6
2015-Jul-06 02:33N 37°09' E 012°05'1111.5
2015-Jul-06 01:33N 37°20' E 012°11'1111.0
2015-Jul-06 00:33N 37°30' E 012°15'8 7.7
2015-Jul-05 23:32N 37°38' E 012°17'1010.1
2015-Jul-05 22:33N 37°47' E 012°20'1110.8
2015-Jul-05 21:33N 37°57' E 012°26'5 5.3
2015-Jul-05 20:33N 38°01' E 012°30'0 0.0
2015-Jul-05 19:33N 38°01' E 012°30'0 0.0
2015-Jul-05 18:33N 38°01' E 012°30'0 0.0
2015-Jul-05 17:33N 38°01' E 012°30'0 0.0
2015-Jul-05 16:33N 38°01' E 012°30'2 1.7
2015-Jul-05 15:33N 37°60' E 012°29'1111.1
2015-Jul-05 14:33N 37°51' E 012°20'1414.2
2015-Jul-05 13:34N 37°37' E 012°15'1513.8
2015-Jul-05 12:31N 37°24' E 012°08'1313.8
2015-Jul-05 11:33N 37°11' E 012°04'1514.8
2015-Jul-05 10:34N 36°57' E 011°59'7 6.9
2015-Jul-05 09:33N 36°50' E 011°56'0 0.0
2015-Jul-05 07:25N 36°50' E 011°56'1 0.2
2015-Jul-05 04:08N 36°51' E 011°57'6 9.2
2015-Jul-05 03:26N 36°57' E 011°58'2010.7
2015-Jul-05 01:33N 37°16' E 012°06'1111.2
2015-Jul-05 00:33N 37°27' E 012°11'1110.8
2015-Jul-04 23:33N 37°37' E 012°15'1010.4
2015-Jul-04 22:33N 37°47' E 012°20'1211.7
2015-Jul-04 21:33N 37°57' E 012°25'2 0.3
2015-Jul-04 15:24N 37°59' E 012°27'1113.2
2015-Jul-04 14:34N 37°49' E 012°20'1413.8
2015-Jul-04 13:33N 37°36' E 012°17'1313.0
2015-Jul-04 12:33N 37°23' E 012°12'1513.6
2015-Jul-04 11:26N 37°09' E 012°05'1314.3
2015-Jul-04 10:32N 36°57' E 011°59'7 6.3
2015-Jul-04 09:22N 36°50' E 011°56'0 0.0
2015-Jul-04 08:25N 36°50' E 011°56'0 0.0
2015-Jul-04 07:27N 36°50' E 011°56'32 5.0
2015-Jul-04 01:04N 37°21' E 012°09'611.6
2015-Jul-04 00:33N 37°26' E 012°11'38 3.1
2015-Jul-03 12:13N 38°01' E 012°31'0 0.0
2015-Jul-03 10:19N 38°01' E 012°31'0 0.0
2015-Jul-03 09:26N 38°01' E 012°31'18 3.7
2015-Jul-03 04:32N 37°46' E 012°17'3511.5
2015-Jul-03 01:31N 37°24' E 012°51'1412.6
2015-Jul-03 00:24N 37°19' E 013°07'1212.8
2015-Jul-02 23:28N 37°14' E 013°21'9 2.4
2015-Jul-02 19:33N 37°17' E 013°32'21 6.1
2015-Jul-02 16:08N 36°58' E 013°22'814.6
2015-Jul-02 15:33N 36°50' E 013°18'1515.0
2015-Jul-02 14:33N 36°36' E 013°11'1515.0
2015-Jul-02 13:33N 36°22' E 013°04'1514.8
2015-Jul-02 12:33N 36°08' E 012°58'1514.6
2015-Jul-02 11:33N 35°55' E 012°52'1110.5
2015-Jul-02 10:33N 35°45' E 012°46'1414.4
2015-Jul-02 09:33N 35°32' E 012°40'3 3.4
2015-Jul-02 08:33N 35°30' E 012°36'0 0.0
2015-Jul-02 07:22N 35°30' E 012°36'2 2.2
2015-Jul-02 06:34N 35°29' E 012°38'1514.4
2015-Jul-02 05:29N 35°43' E 012°46'10 8.0
2015-Jul-02 04:18N 35°52' E 012°51'810.6
2015-Jul-02 03:33N 35°60' E 012°51'1413.7
2015-Jul-02 02:32N 36°13' E 012°57'1413.8
2015-Jul-02 01:33N 36°25' E 013°04'1413.9
2015-Jul-02 00:33N 36°38' E 013°11'1413.9
2015-Jul-01 23:33N 36°50' E 013°18'1413.8
2015-Jul-01 22:33N 37°03' E 013°24'1513.7
2015-Jul-01 21:29N 37°17' E 013°32'1 0.3
2015-Jul-01 19:33N 37°17' E 013°32'0 0.0
2015-Jul-01 18:33N 37°17' E 013°32'2 2.4
2015-Jul-01 17:33N 37°15' E 013°31'1414.3
2015-Jul-01 16:33N 37°02' E 013°25'1514.6
2015-Jul-01 15:33N 36°48' E 013°17'1515.1
2015-Jul-01 14:33N 36°34' E 013°09'1514.9
2015-Jul-01 13:33N 36°20' E 013°03'1514.7
2015-Jul-01 12:32N 36°06' E 012°57'1414.6
2015-Jul-01 11:34N 35°53' E 012°51'1110.7
2015-Jul-01 10:33N 35°43' E 012°46'1414.2
2015-Jul-01 09:33N 35°30' E 012°39'2 1.6
2015-Jul-01 08:13N 35°30' E 012°36'0 0.0
2015-Jul-01 07:33N 35°30' E 012°36'11 8.4
2015-Jul-01 06:15N 35°39' E 012°44'1014.8
2015-Jul-01 05:33N 35°48' E 012°49'1110.8
2015-Jul-01 04:33N 35°59' E 012°52'1514.7
2015-Jul-01 03:33N 36°13' E 012°58'1514.6
2015-Jul-01 02:33N 36°26' E 013°04'1414.0
2015-Jul-01 01:33N 36°40' E 013°10'1313.1
2015-Jul-01 00:33N 36°51' E 013°19'1313.4
2015-Jun-30 23:33N 37°03' E 013°25'1413.5
2015-Jun-30 22:32N 37°16' E 013°31'1 1.3
2015-Jun-30 21:33N 37°17' E 013°32'0 0.0
2015-Jun-30 20:31N 37°17' E 013°32'0 0.0
2015-Jun-30 19:33N 37°17' E 013°32'0 0.0
2015-Jun-30 18:33N 37°17' E 013°32'3 3.4
2015-Jun-30 17:33N 37°14' E 013°31'1414.3
2015-Jun-30 16:33N 37°01' E 013°23'1414.4
2015-Jun-30 15:33N 36°48' E 013°15'1514.6
2015-Jun-30 14:33N 36°34' E 013°09'1514.5
2015-Jun-30 13:33N 36°21' E 013°03'2014.4
2015-Jun-30 12:12N 36°02' E 012°55'914.2
2015-Jun-30 11:32N 35°53' E 012°51'1010.0
2015-Jun-30 10:33N 35°44' E 012°46'1514.0
2015-Jun-30 09:31N 35°31' E 012°39'23 4.3
2015-Jun-30 04:11N 35°52' E 012°51'811.8
2015-Jun-30 03:32N 35°59' E 012°53'1313.5
2015-Jun-30 02:33N 36°12' E 012°57'1313.1
2015-Jun-30 01:33N 36°24' E 013°03'1312.9
2015-Jun-30 00:33N 36°36' E 013°09'1312.6
2015-Jun-29 23:33N 36°47' E 013°16'1413.1
2015-Jun-29 22:30N 37°00' E 013°23'1413.2
2015-Jun-29 21:28N 37°13' E 013°30'5 1.4
2015-Jun-29 18:06N 37°17' E 013°32'610.4
2015-Jun-29 17:29N 37°11' E 013°30'1314.4
2015-Jun-29 16:34N 36°58' E 013°25'1414.2
2015-Jun-29 15:33N 36°45' E 013°18'1414.0
2015-Jun-29 14:34N 36°32' E 013°11'1414.0
2015-Jun-29 13:34N 36°20' E 013°04'1414.1
2015-Jun-29 12:33N 36°06' E 012°58'1413.8
2015-Jun-29 11:33N 35°54' E 012°51'10 9.8
2015-Jun-29 10:33N 35°44' E 012°47'1413.8
2015-Jun-29 09:33N 35°32' E 012°40'4 3.3
2015-Jun-29 08:28N 35°30' E 012°36'1 0.5
2015-Jun-29 06:33N 35°29' E 012°37'1413.7
2015-Jun-29 05:33N 35°41' E 012°46'12 9.0
2015-Jun-29 04:15N 35°52' E 012°51'710.6
2015-Jun-29 03:33N 35°59' E 012°52'1312.8
2015-Jun-29 02:34N 36°11' E 012°55'1313.2
2015-Jun-29 01:34N 36°24' E 013°01'1313.1
2015-Jun-29 00:33N 36°36' E 013°08'1313.4
2015-Jun-28 23:34N 36°48' E 013°14'1413.4
2015-Jun-28 22:31N 36°60' E 013°23'1313.6
2015-Jun-28 21:33N 37°12' E 013°30'5 5.3
2015-Jun-28 20:33N 37°17' E 013°32'0 0.0
2015-Jun-28 19:31N 37°17' E 013°32'0 0.0
2015-Jun-28 18:33N 37°17' E 013°32'5 5.3
2015-Jun-28 17:33N 37°12' E 013°31'1313.2
2015-Jun-28 16:33N 36°59' E 013°26'1313.3
2015-Jun-28 15:34N 36°47' E 013°19'1313.5
2015-Jun-28 14:33N 36°35' E 013°12'1413.5
2015-Jun-28 13:33N 36°22' E 013°06'1413.6
2015-Jun-28 12:34N 36°10' E 012°59'1913.6
2015-Jun-28 11:09N 35°52' E 012°50'9 1.2
2015-Jun-28 03:27N 36°01' E 012°52'1110.9
2015-Jun-28 02:24N 36°12' E 012°57'1012.3
2015-Jun-28 01:33N 36°21' E 013°02'1414.0
2015-Jun-28 00:33N 36°34' E 013°10'1413.6
2015-Jun-27 23:33N 36°46' E 013°17'1313.5
2015-Jun-27 22:33N 36°59' E 013°23'20 4.9
2015-Jun-27 18:33N 37°17' E 013°32'1010.4
2015-Jun-27 17:33N 37°07' E 013°31'  

Dump ship's entire track history